Time,TemperatureF,DewpointF,PressureIn,WindDirection,WindDirectionDegrees,WindSpeedMPH,WindSpeedGustMPH,Humidity,HourlyPrecipIn,Conditions,Clouds,dailyrainin,SoftwareType,DateUTC
2013-09-10 00:02:00,71.5,67.4,30.15,ENE,73,7.0,7.0,87,0.00,SCT,,0.00,WeatherDisplay:10.37,2013-09-09 22:02:00,
2013-09-10 00:07:00,71.4,67.3,30.15,ENE,73,8.1,8.1,87,0.00,SCT,,0.00,WeatherDisplay:10.37,2013-09-09 22:07:00,
2013-09-10 00:12:00,71.3,67.2,30.15,ENE,65,8.1,8.1,87,0.00,SCT,,0.00,WeatherDisplay:10.37,2013-09-09 22:12:00,
2013-09-10 00:17:00,71.4,67.3,30.14,ENE,76,7.0,7.0,87,0.00,SCT,,0.00,WeatherDisplay:10.37,2013-09-09 22:17:00,
2013-09-10 00:22:00,71.3,67.2,30.14,East,84,7.0,7.0,87,0.00,SCT,,0.00,WeatherDisplay:10.37,2013-09-09 22:22:00,
2013-09-10 00:27:00,71.2,67.1,30.14,East,82,6.0,6.0,87,0.00,SCT,,0.00,WeatherDisplay:10.37,2013-09-09 22:27:00,
2013-09-10 00:32:00,71.2,67.1,30.14,East,79,6.9,6.9,87,0.00,FEW,,0.00,WeatherDisplay:10.37,2013-09-09 22:32:00,
2013-09-10 00:37:00,71.2,67.1,30.14,East,80,6.9,6.9,87,0.00,FEW,,0.00,WeatherDisplay:10.37,2013-09-09 22:37:00,
2013-09-10 00:42:00,71.2,67.1,30.14,ENE,71,6.9,6.9,87,0.00,FEW,,0.00,WeatherDisplay:10.37,2013-09-09 22:42:00,
2013-09-10 00:47:00,71.2,67.1,30.14,ENE,68,6.9,6.9,87,0.00,FEW,,0.00,WeatherDisplay:10.37,2013-09-09 22:47:00,
2013-09-10 00:52:00,71.3,67.6,30.14,ENE,72,6.9,6.9,88,0.00,FEW,,0.00,WeatherDisplay:10.37,2013-09-09 22:52:00,
2013-09-10 00:57:00,71.2,67.5,30.14,ENE,60,6.9,6.9,88,0.00,FEW,,0.00,WeatherDisplay:10.37,2013-09-09 22:57:00,
2013-09-10 01:02:00,71.3,67.6,30.14,ENE,60,4.6,4.6,88,0.00,FEW,,0.00,WeatherDisplay:10.37,2013-09-09 23:02:00,
2013-09-10 01:07:00,71.3,67.6,30.14,ENE,57,4.0,4.0,88,0.00,FEW,,0.00,WeatherDisplay:10.37,2013-09-09 23:07:00,
2013-09-10 01:12:00,71.3,67.6,30.14,NE,52,3.5,3.5,88,0.00,FEW,,0.00,WeatherDisplay:10.37,2013-09-09 23:12:00,
2013-09-10 01:17:00,71.3,67.6,30.15,ENE,73,4.6,4.6,88,0.00,FEW,,0.00,WeatherDisplay:10.37,2013-09-09 23:17:00,
2013-09-10 01:22:00,71.3,67.2,30.14,NE,55,6.9,6.9,87,0.00,FEW,,0.00,WeatherDisplay:10.37,2013-09-09 23:22:00,
2013-09-10 01:27:00,71.3,67.2,30.14,ENE,66,4.6,4.6,87,0.00,FEW,,0.00,WeatherDisplay:10.37,2013-09-09 23:27:00,
2013-09-10 01:32:00,71.3,67.6,30.14,ENE,62,6.9,6.9,88,0.00,FEW,,0.00,WeatherDisplay:10.37,2013-09-09 23:32:00,
2013-09-10 01:37:00,71.3,67.2,30.14,ENE,59,4.6,4.6,87,0.00,FEW,,0.00,WeatherDisplay:10.37,2013-09-09 23:37:00,
2013-09-10 01:42:00,71.3,67.2,30.14,ENE,59,7.0,7.0,87,0.00,FEW,,0.00,WeatherDisplay:10.37,2013-09-09 23:42:00,
2013-09-10 01:47:00,71.2,67.1,30.14,ENE,59,7.0,7.0,87,0.00,FEW,,0.00,WeatherDisplay:10.37,2013-09-09 23:47:00,
2013-09-10 01:52:00,71.3,67.2,30.14,ENE,59,5.0,5.0,87,0.00,FEW,,0.00,WeatherDisplay:10.37,2013-09-09 23:52:00,
2013-09-10 01:57:00,71.3,67.2,30.14,NE,51,4.6,4.6,87,0.00,FEW,,0.00,WeatherDisplay:10.37,2013-09-09 23:57:00,
2013-09-10 02:02:00,71.2,67.1,30.14,NE,41,4.6,4.6,87,0.00,FEW,,0.00,WeatherDisplay:10.37,2013-09-10 00:02:00,
2013-09-10 02:07:00,71.2,67.1,30.14,NNE,23,4.6,4.6,87,0.00,FEW,,0.00,WeatherDisplay:10.37,2013-09-10 00:07:00,
2013-09-10 02:12:00,71.1,67.0,30.14,NE,34,3.5,3.5,87,0.00,FEW,,0.00,WeatherDisplay:10.37,2013-09-10 00:12:00,
2013-09-10 02:17:00,71.0,67.3,30.14,NE,46,4.0,4.0,88,0.00,FEW,,0.00,WeatherDisplay:10.37,2013-09-10 00:17:00,
2013-09-10 02:22:00,71.0,67.3,30.14,NE,45,4.6,4.6,88,0.00,FEW,,0.00,WeatherDisplay:10.37,2013-09-10 00:22:00,
2013-09-10 02:27:00,71.1,67.4,30.14,NNE,31,4.0,4.0,88,0.00,FEW,,0.00,WeatherDisplay:10.37,2013-09-10 00:27:00,
2013-09-10 02:32:00,71.1,67.4,30.14,NE,47,4.6,4.6,88,0.00,FEW,,0.00,WeatherDisplay:10.37,2013-09-10 00:32:00,
2013-09-10 02:37:00,71.0,67.3,30.14,NE,56,7.0,7.0,88,0.00,FEW,,0.00,WeatherDisplay:10.37,2013-09-10 00:37:00,
2013-09-10 02:42:00,71.1,67.4,30.14,NE,56,6.9,6.9,88,0.00,FEW,,0.00,WeatherDisplay:10.37,2013-09-10 00:42:00,
2013-09-10 02:47:00,71.1,67.4,30.14,ENE,77,6.9,6.9,88,0.00,FEW,,0.00,WeatherDisplay:10.37,2013-09-10 00:47:00,
2013-09-10 02:52:00,71.1,67.4,30.14,ENE,61,5.0,5.0,88,0.00,FEW,,0.00,WeatherDisplay:10.37,2013-09-10 00:52:00,
2013-09-10 02:57:00,71.0,67.3,30.13,ENE,61,4.6,4.6,88,0.00,FEW,,0.00,WeatherDisplay:10.37,2013-09-10 00:57:00,
2013-09-10 03:02:00,70.9,67.2,30.13,ENE,60,4.6,4.6,88,0.00,FEW,,0.00,WeatherDisplay:10.37,2013-09-10 01:02:00,
2013-09-10 03:07:00,70.9,67.2,30.13,NE,51,4.6,4.6,88,0.00,FEW,,0.00,WeatherDisplay:10.37,2013-09-10 01:07:00,
2013-09-10 03:12:00,70.9,67.2,30.13,NNE,27,3.5,3.5,88,0.00,FEW,,0.00,WeatherDisplay:10.37,2013-09-10 01:12:00,
2013-09-10 03:17:00,70.9,67.2,30.13,NE,39,4.6,4.6,88,0.00,FEW,,0.00,WeatherDisplay:10.37,2013-09-10 01:17:00,
2013-09-10 03:22:00,70.9,67.2,30.13,NE,42,3.5,3.5,88,0.00,FEW,,0.00,WeatherDisplay:10.37,2013-09-10 01:22:00,
2013-09-10 03:27:00,70.9,67.2,30.13,NNE,25,3.5,3.5,88,0.00,FEW,,0.00,WeatherDisplay:10.37,2013-09-10 01:27:00,
2013-09-10 03:32:00,70.9,67.2,30.13,NNE,29,4.0,4.0,88,0.00,FEW,,0.00,WeatherDisplay:10.37,2013-09-10 01:32:00,
2013-09-10 03:37:00,71.0,67.3,30.13,NE,41,5.0,5.0,88,0.00,FEW,,0.00,WeatherDisplay:10.37,2013-09-10 01:37:00,
2013-09-10 03:42:00,71.0,67.3,30.12,NNE,28,5.8,5.8,88,0.00,FEW,,0.00,WeatherDisplay:10.37,2013-09-10 01:42:00,
2013-09-10 03:47:00,71.0,67.3,30.12,NE,41,4.6,4.6,88,0.00,FEW,,0.00,WeatherDisplay:10.37,2013-09-10 01:47:00,
2013-09-10 03:52:00,71.0,67.3,30.12,NNE,19,3.5,3.6,88,0.00,FEW,,0.00,WeatherDisplay:10.37,2013-09-10 01:52:00,
2013-09-10 03:57:00,71.0,67.3,30.12,North,8,3.5,3.6,88,0.00,FEW,,0.00,WeatherDisplay:10.37,2013-09-10 01:57:00,
2013-09-10 04:02:00,70.9,67.2,30.12,NNE,17,4.0,4.0,88,0.00,FEW,,0.00,WeatherDisplay:10.37,2013-09-10 02:02:00,
2013-09-10 04:07:00,70.8,67.1,30.12,North,4,5.0,5.0,88,0.00,FEW,,0.00,WeatherDisplay:10.37,2013-09-10 02:07:00,
2013-09-10 04:12:00,70.7,67.3,30.12,NNE,15,5.0,5.0,89,0.00,FEW,,0.00,WeatherDisplay:10.37,2013-09-10 02:12:00,
2013-09-10 04:17:00,70.7,67.3,30.11,NNW,343,6.9,6.9,89,0.00,FEW,,0.00,WeatherDisplay:10.37,2013-09-10 02:17:00,
2013-09-10 04:22:00,70.6,67.2,30.11,North,349,8.1,8.1,89,0.00,FEW,,0.00,WeatherDisplay:10.37,2013-09-10 02:22:00,
2013-09-10 04:27:00,70.5,67.1,30.11,North,4,8.1,8.1,89,0.00,FEW,,0.00,WeatherDisplay:10.37,2013-09-10 02:27:00,
2013-09-10 04:32:00,70.5,67.1,30.11,North,4,6.9,6.9,89,0.00,FEW,,0.00,WeatherDisplay:10.37,2013-09-10 02:32:00,
2013-09-10 04:37:00,70.5,67.1,30.11,North,359,5.8,5.8,89,0.00,FEW,,0.00,WeatherDisplay:10.37,2013-09-10 02:37:00,
2013-09-10 04:42:00,70.5,67.1,30.11,North,354,6.9,6.9,89,0.00,FEW,,0.00,WeatherDisplay:10.37,2013-09-10 02:42:00,
2013-09-10 04:47:00,70.4,67.0,30.11,North,354,5.8,5.8,89,0.00,FEW,,0.00,WeatherDisplay:10.37,2013-09-10 02:47:00,
2013-09-10 04:52:00,70.4,67.0,30.10,NNW,338,6.9,6.9,89,0.00,FEW,,0.00,WeatherDisplay:10.37,2013-09-10 02:52:00,
2013-09-10 04:57:00,70.4,67.0,30.10,North,349,8.1,8.1,89,0.00,FEW,,0.00,WeatherDisplay:10.37,2013-09-10 02:57:00,
2013-09-10 05:02:00,70.3,66.9,30.09,North,359,8.1,8.1,89,0.00,FEW,,0.00,WeatherDisplay:10.37,2013-09-10 03:02:00,
2013-09-10 05:07:00,70.4,67.0,30.09,North,354,8.1,8.1,89,0.00,FEW,,0.00,WeatherDisplay:10.37,2013-09-10 03:07:00,
2013-09-10 05:12:00,70.5,66.8,30.09,North,359,8.1,8.1,88,0.00,FEW,,0.00,WeatherDisplay:10.37,2013-09-10 03:12:00,
2013-09-10 05:17:00,70.4,66.7,30.09,North,354,8.1,8.1,88,0.00,FEW,,0.00,WeatherDisplay:10.37,2013-09-10 03:17:00,
2013-09-10 05:22:00,70.3,66.6,30.08,North,8,8.1,8.1,88,0.00,FEW,,0.00,WeatherDisplay:10.37,2013-09-10 03:22:00,
2013-09-10 05:27:00,70.1,66.4,30.08,North,359,9.2,9.2,88,0.00,FEW,,0.00,WeatherDisplay:10.37,2013-09-10 03:27:00,
2013-09-10 05:32:00,70.0,66.0,30.08,North,359,9.2,9.2,87,0.00,FEW,,0.00,WeatherDisplay:10.37,2013-09-10 03:32:00,
2013-09-10 05:37:00,70.1,65.7,30.08,North,4,8.1,8.1,86,0.00,FEW,,0.00,WeatherDisplay:10.37,2013-09-10 03:37:00,
2013-09-10 05:42:00,70.3,65.6,30.08,North,359,9.2,9.2,85,0.00,FEW,,0.00,WeatherDisplay:10.37,2013-09-10 03:42:00,
2013-09-10 05:47:00,70.4,65.3,30.08,North,354,10.4,10.4,84,0.00,FEW,,0.00,WeatherDisplay:10.37,2013-09-10 03:47:00,
2013-09-10 05:52:00,70.5,65.1,30.08,North,359,10.4,10.4,83,0.00,FEW,,0.00,WeatherDisplay:10.37,2013-09-10 03:52:00,
2013-09-10 05:57:00,70.5,65.1,30.07,North,4,10.4,10.4,83,0.00,FEW,,0.00,WeatherDisplay:10.37,2013-09-10 03:57:00,
2013-09-10 06:01:00,70.4,65.3,30.07,North,359,9.2,9.2,84,0.00,FEW,,0.00,WeatherDisplay:10.37,2013-09-10 04:01:00,
2013-09-10 06:02:00,70.4,65.3,30.07,North,10,9.2,9.2,84,0.00,FEW,,0.00,WeatherDisplay:10.37,2013-09-10 04:02:00,
2013-09-10 06:07:00,70.1,65.0,30.07,NNE,23,8.1,8.1,84,0.00,FEW,,0.00,WeatherDisplay:10.37,2013-09-10 04:07:00,
2013-09-10 06:12:00,70.2,65.1,30.07,NNE,12,6.9,6.9,84,0.00,FEW,,0.00,WeatherDisplay:10.37,2013-09-10 04:12:00,
2013-09-10 06:17:00,70.4,65.0,30.07,North,10,8.1,8.1,83,0.00,FEW,,0.00,WeatherDisplay:10.37,2013-09-10 04:17:00,
2013-09-10 06:22:00,70.3,64.9,30.07,NNE,21,5.8,5.8,83,0.00,FEW,,0.00,WeatherDisplay:10.37,2013-09-10 04:22:00,
2013-09-10 06:27:00,70.2,64.8,30.08,NNE,31,8.1,8.1,83,0.00,FEW,,0.00,WeatherDisplay:10.37,2013-09-10 04:27:00,
2013-09-10 06:32:00,70.4,65.0,30.08,NE,38,9.2,9.2,83,0.00,FEW,,0.00,WeatherDisplay:10.37,2013-09-10 04:32:00,
2013-09-10 06:37:00,70.8,65.4,30.08,NE,41,10.4,10.4,83,0.00,FEW,,0.00,WeatherDisplay:10.37,2013-09-10 04:37:00,
2013-09-10 06:42:00,70.8,65.4,30.08,NE,42,8.1,8.1,83,0.00,FEW,,0.00,WeatherDisplay:10.37,2013-09-10 04:42:00,
2013-09-10 06:47:00,70.8,65.7,30.07,NE,45,9.2,9.2,84,0.00,FEW,,0.00,WeatherDisplay:10.37,2013-09-10 04:47:00,
2013-09-10 06:52:00,70.8,66.1,30.07,NE,39,10.4,10.4,85,0.00,FEW,,0.00,WeatherDisplay:10.37,2013-09-10 04:52:00,
2013-09-10 06:57:00,71.0,66.6,30.07,NE,34,10.4,10.4,86,0.00,FEW,,0.00,WeatherDisplay:10.37,2013-09-10 04:57:00,
2013-09-10 07:02:00,70.9,66.5,30.07,NE,48,10.4,10.4,86,0.00,FEW,,0.00,WeatherDisplay:10.37,2013-09-10 05:02:00,
2013-09-10 07:07:00,71.0,66.6,30.07,NE,42,11.5,11.5,86,0.00,FEW,,0.00,WeatherDisplay:10.37,2013-09-10 05:07:00,
2013-09-10 07:12:00,71.0,66.3,30.07,NE,43,9.2,9.2,85,0.00,FEW,,0.00,WeatherDisplay:10.37,2013-09-10 05:12:00,
2013-09-10 07:17:00,71.0,66.3,30.07,NE,50,5.8,5.8,85,0.00,FEW,,0.00,WeatherDisplay:10.37,2013-09-10 05:17:00,
2013-09-10 07:22:00,71.0,66.3,30.07,NE,52,8.1,8.1,85,0.00,FEW,,0.00,WeatherDisplay:10.37,2013-09-10 05:22:00,
2013-09-10 07:27:00,71.1,66.4,30.08,NE,38,8.1,8.1,85,0.00,FEW,,0.00,WeatherDisplay:10.37,2013-09-10 05:27:00,
2013-09-10 07:32:00,71.1,66.4,30.08,NE,50,8.1,8.1,85,0.00,FEW,,0.00,WeatherDisplay:10.37,2013-09-10 05:32:00,
2013-09-10 07:37:00,71.1,66.7,30.08,NE,38,8.1,8.1,86,0.00,FEW,,0.00,WeatherDisplay:10.37,2013-09-10 05:37:00,
2013-09-10 07:42:00,71.1,66.7,30.08,NE,41,6.9,6.9,86,0.00,FEW,,0.00,WeatherDisplay:10.37,2013-09-10 05:42:00,
2013-09-10 07:47:00,70.9,66.5,30.07,NNE,23,5.8,5.8,86,0.00,FEW,,0.00,WeatherDisplay:10.37,2013-09-10 05:47:00,
2013-09-10 07:52:00,70.9,66.2,30.07,NNE,28,8.1,8.1,85,0.00,FEW,,0.00,WeatherDisplay:10.37,2013-09-10 05:52:00,
2013-09-10 07:57:00,70.8,66.1,30.06,NNE,17,6.9,6.9,85,0.00,FEW,,0.00,WeatherDisplay:10.37,2013-09-10 05:57:00,
2013-09-10 08:02:00,70.7,66.0,30.07,NNE,28,6.9,6.9,85,0.00,FEW,,0.00,WeatherDisplay:10.37,2013-09-10 06:02:00,
2013-09-10 08:07:00,70.7,66.0,30.06,NNE,29,5.8,5.8,85,0.00,FEW,,0.00,WeatherDisplay:10.37,2013-09-10 06:07:00,
2013-09-10 08:12:00,70.6,65.9,30.07,NNE,13,5.8,5.8,85,0.00,FEW,,0.00,WeatherDisplay:10.37,2013-09-10 06:12:00,
2013-09-10 08:17:00,70.7,66.3,30.07,NNE,13,5.8,5.8,86,0.00,FEW,,0.00,WeatherDisplay:10.37,2013-09-10 06:17:00,
2013-09-10 08:22:00,70.7,66.3,30.07,NNE,23,6.0,6.0,86,0.00,FEW,,0.00,WeatherDisplay:10.37,2013-09-10 06:22:00,
2013-09-10 08:27:00,70.9,66.5,30.07,NE,43,5.8,5.8,86,0.00,FEW,,0.00,WeatherDisplay:10.37,2013-09-10 06:27:00,
2013-09-10 08:32:00,71.0,66.6,30.08,ENE,62,8.1,8.1,86,0.00,FEW,,0.00,WeatherDisplay:10.37,2013-09-10 06:32:00,
2013-09-10 08:37:00,71.0,66.6,30.08,North,4,9.2,9.2,86,0.00,FEW,,0.00,WeatherDisplay:10.37,2013-09-10 06:37:00,
2013-09-10 08:42:00,71.0,66.6,30.08,NNE,29,4.6,4.6,86,0.00,FEW,,0.00,WeatherDisplay:10.37,2013-09-10 06:42:00,
2013-09-10 08:47:00,70.9,66.5,30.08,NE,39,9.2,9.2,86,0.00,FEW,,0.00,WeatherDisplay:10.37,2013-09-10 06:47:00,
2013-09-10 08:52:00,71.0,66.6,30.08,NE,50,5.0,5.0,86,0.00,FEW,,0.00,WeatherDisplay:10.37,2013-09-10 06:52:00,
2013-09-10 08:57:00,71.1,66.7,30.08,NE,47,8.1,8.1,86,0.00,FEW,,0.00,WeatherDisplay:10.37,2013-09-10 06:57:00,
2013-09-10 09:02:00,71.1,66.7,30.08,NE,38,6.9,6.9,86,0.00,FEW,,0.00,WeatherDisplay:10.37,2013-09-10 07:02:00,
2013-09-10 09:07:00,71.2,66.8,30.08,NE,39,9.2,9.2,86,0.00,FEW,,0.00,WeatherDisplay:10.37,2013-09-10 07:07:00,
2013-09-10 09:12:00,71.2,66.8,30.08,North,8,6.9,6.9,86,0.00,FEW,,0.00,WeatherDisplay:10.37,2013-09-10 07:12:00,
2013-09-10 09:17:00,71.3,67.2,30.08,NE,56,9.2,9.2,87,0.00,FEW,,0.00,WeatherDisplay:10.37,2013-09-10 07:17:00,
2013-09-10 09:22:00,71.3,67.2,30.08,NE,52,8.1,8.1,87,0.00,FEW,,0.00,WeatherDisplay:10.37,2013-09-10 07:22:00,
2013-09-10 09:27:00,71.4,67.0,30.08,NNE,23,5.8,5.8,86,0.00,FEW,,0.00,WeatherDisplay:10.37,2013-09-10 07:27:00,
2013-09-10 09:32:00,71.5,67.1,30.08,ENE,59,3.5,3.5,86,0.00,FEW,,0.00,WeatherDisplay:10.37,2013-09-10 07:32:00,
2013-09-10 09:37:00,71.5,67.1,30.08,ENE,58,4.6,4.6,86,0.00,FEW,,0.00,WeatherDisplay:10.37,2013-09-10 07:37:00,
2013-09-10 09:42:00,71.6,67.2,30.08,NE,45,4.0,4.0,86,0.00,FEW,,0.00,WeatherDisplay:10.37,2013-09-10 07:42:00,
2013-09-10 09:47:00,71.7,67.3,30.08,NE,34,4.6,4.6,86,0.00,FEW,,0.00,WeatherDisplay:10.37,2013-09-10 07:47:00,
2013-09-10 09:52:00,71.8,67.4,30.08,North,9,3.5,3.5,86,0.00,FEW,,0.00,WeatherDisplay:10.37,2013-09-10 07:52:00,
2013-09-10 09:57:00,72.0,67.2,30.09,North,4,3.5,3.5,85,0.00,FEW,,0.00,WeatherDisplay:10.37,2013-09-10 07:57:00,
2013-09-10 10:02:00,72.1,67.3,30.09,North,4,2.0,2.0,85,0.00,FEW,,0.00,WeatherDisplay:10.37,2013-09-10 08:02:00,
2013-09-10 10:07:00,72.2,67.4,30.09,ENE,70,3.5,3.5,85,0.00,FEW,,0.00,WeatherDisplay:10.37,2013-09-10 08:07:00,
2013-09-10 10:12:00,72.4,67.6,30.09,East,79,8.1,8.1,85,0.00,FEW,,0.00,WeatherDisplay:10.37,2013-09-10 08:12:00,
2013-09-10 10:17:00,72.7,67.6,30.09,ENE,68,8.1,8.1,84,0.00,FEW,,0.00,WeatherDisplay:10.37,2013-09-10 08:17:00,
2013-09-10 10:22:00,73.1,67.6,30.09,NE,56,6.9,6.9,83,0.00,FEW,,0.00,WeatherDisplay:10.37,2013-09-10 08:22:00,
2013-09-10 10:27:00,73.2,67.7,30.09,NE,43,9.2,9.2,83,0.00,FEW,,0.00,WeatherDisplay:10.37,2013-09-10 08:27:00,
2013-09-10 10:32:00,73.3,67.8,30.09,ENE,66,8.1,8.1,83,0.00,FEW,,0.00,WeatherDisplay:10.37,2013-09-10 08:32:00,
2013-09-10 10:37:00,73.2,67.4,30.09,ENE,70,9.2,9.2,82,0.00,FEW,,0.00,WeatherDisplay:10.37,2013-09-10 08:37:00,
2013-09-10 10:42:00,73.4,67.9,30.09,ENE,68,4.0,4.0,83,0.00,FEW,,0.00,WeatherDisplay:10.37,2013-09-10 08:42:00,
2013-09-10 10:47:00,73.3,67.1,30.09,ENE,68,8.1,8.1,81,0.00,FEW,,0.00,WeatherDisplay:10.37,2013-09-10 08:47:00,
2013-09-10 10:52:00,73.4,67.6,30.09,East,82,7.0,7.0,82,0.00,FEW,,0.00,WeatherDisplay:10.37,2013-09-10 08:52:00,
2013-09-10 10:58:00,73.5,67.7,30.10,ENE,77,5.0,5.0,82,0.00,FEW,,0.00,WeatherDisplay:10.37,2013-09-10 08:58:00,
2013-09-10 11:03:00,74.3,67.4,30.09,SE,128,3.5,3.5,79,0.00,FEW,,0.00,WeatherDisplay:10.37,2013-09-10 09:03:00,
2013-09-10 11:08:00,75.2,67.1,30.10,ENE,69,6.9,6.9,76,0.00,FEW,,0.00,WeatherDisplay:10.37,2013-09-10 09:08:00,
2013-09-10 11:13:00,75.1,66.6,30.09,ESE,109,5.8,5.8,75,0.00,FEW,,0.00,WeatherDisplay:10.37,2013-09-10 09:13:00,
2013-09-10 11:18:00,75.3,67.2,30.09,ESE,114,6.9,6.9,76,0.00,FEW,,0.00,WeatherDisplay:10.37,2013-09-10 09:18:00,
2013-09-10 11:23:00,75.3,66.4,30.09,ESE,110,3.5,3.5,74,0.00,FEW,,0.00,WeatherDisplay:10.37,2013-09-10 09:23:00,
2013-09-10 11:28:00,75.4,66.5,30.09,ESE,121,3.5,3.5,74,0.00,FEW,,0.00,WeatherDisplay:10.37,2013-09-10 09:28:00,
2013-09-10 11:33:00,75.9,67.0,30.09,ESE,105,4.6,4.6,74,0.00,FEW,,0.00,WeatherDisplay:10.37,2013-09-10 09:33:00,
2013-09-10 11:38:00,76.0,67.5,30.09,SE,131,5.8,5.8,75,0.00,FEW,,0.00,WeatherDisplay:10.37,2013-09-10 09:38:00,
2013-09-10 11:43:00,75.7,67.2,30.09,SSE,153,6.0,6.0,75,0.00,FEW,,0.00,WeatherDisplay:10.37,2013-09-10 09:43:00,
2013-09-10 11:48:00,75.4,66.9,30.09,SE,132,6.9,6.9,75,0.00,FEW,,0.00,WeatherDisplay:10.37,2013-09-10 09:48:00,
2013-09-10 11:53:00,75.0,66.5,30.09,South,185,5.8,5.8,75,0.00,FEW,,0.00,WeatherDisplay:10.37,2013-09-10 09:53:00,
2013-09-10 11:58:00,75.0,66.9,30.09,SSE,156,6.0,6.0,76,0.00,FEW,,0.00,WeatherDisplay:10.37,2013-09-10 09:58:00,
2013-09-10 12:03:00,74.7,67.0,30.10,SE,131,3.5,3.5,77,0.00,FEW,,0.00,WeatherDisplay:10.37,2013-09-10 10:03:00,
2013-09-10 12:08:00,74.5,67.2,30.10,SW,224,5.8,5.8,78,0.00,FEW,,0.00,WeatherDisplay:10.37,2013-09-10 10:08:00,
2013-09-10 12:13:00,73.6,66.3,30.10,SW,234,6.9,6.9,78,0.00,FEW,,0.00,WeatherDisplay:10.37,2013-09-10 10:13:00,
2013-09-10 12:18:00,73.5,66.6,30.10,SSW,208,7.0,7.0,79,0.00,FEW,,0.00,WeatherDisplay:10.37,2013-09-10 10:18:00,
2013-09-10 12:23:00,73.5,66.6,30.10,South,173,6.9,6.9,79,0.00,FEW,,0.00,WeatherDisplay:10.37,2013-09-10 10:23:00,
2013-09-10 12:28:00,73.5,66.2,30.10,South,175,5.8,5.8,78,0.00,FEW,,0.00,WeatherDisplay:10.37,2013-09-10 10:28:00,
2013-09-10 12:33:00,73.6,66.3,30.09,ESE,116,7.0,7.0,78,0.00,FEW,,0.00,WeatherDisplay:10.37,2013-09-10 10:33:00,
2013-09-10 12:38:00,73.2,65.9,30.09,ESE,116,4.6,4.6,78,0.00,FEW,,0.00,WeatherDisplay:10.37,2013-09-10 10:38:00,
2013-09-10 12:43:00,73.0,65.7,30.09,ESE,105,9.2,9.2,78,0.00,FEW,,0.00,WeatherDisplay:10.37,2013-09-10 10:43:00,
2013-09-10 12:48:00,72.8,65.5,30.09,SE,125,3.5,3.5,78,0.00,FEW,,0.00,WeatherDisplay:10.37,2013-09-10 10:48:00,
2013-09-10 12:53:00,72.7,66.2,30.09,South,172,3.5,3.5,80,0.00,FEW,,0.00,WeatherDisplay:10.37,2013-09-10 10:53:00,
2013-09-10 12:58:00,72.6,66.1,30.09,East,98,3.5,3.5,80,0.00,FEW,,0.00,WeatherDisplay:10.37,2013-09-10 10:58:00,
2013-09-10 13:03:00,72.6,66.4,30.08,SE,131,1.1,1.1,81,0.00,FEW,,0.00,WeatherDisplay:10.37,2013-09-10 11:03:00,
2013-09-10 13:08:00,72.8,66.6,30.08,East,97,3.5,3.5,81,0.00,FEW,,0.00,WeatherDisplay:10.37,2013-09-10 11:08:00,
2013-09-10 13:14:00,72.8,66.6,30.08,South,171,3.5,3.5,81,0.00,FEW,,0.00,WeatherDisplay:10.37,2013-09-10 11:14:00,
2013-09-10 13:19:00,72.9,66.4,30.08,South,172,4.6,4.6,80,0.00,FEW,,0.00,WeatherDisplay:10.37,2013-09-10 11:19:00,
2013-09-10 13:24:00,73.1,66.9,30.09,East,81,5.8,5.8,81,0.00,FEW,,0.00,WeatherDisplay:10.37,2013-09-10 11:24:00,
2013-09-10 13:29:00,73.0,67.2,30.09,East,81,11.5,11.5,82,0.00,FEW,,0.00,WeatherDisplay:10.37,2013-09-10 11:29:00,
2013-09-10 13:34:00,72.7,67.2,30.09,East,91,6.9,6.9,83,0.00,FEW,,0.00,WeatherDisplay:10.37,2013-09-10 11:34:00,
2013-09-10 13:39:00,73.0,67.5,30.09,ENE,77,4.6,4.6,83,0.00,FEW,,0.00,WeatherDisplay:10.37,2013-09-10 11:39:00,
2013-09-10 13:44:00,74.0,68.9,30.09,ESE,113,9.0,9.0,84,0.00,FEW,,0.00,WeatherDisplay:10.37,2013-09-10 11:44:00,
2013-09-10 13:49:00,74.1,68.3,30.08,SSE,155,7.0,7.0,82,0.00,FEW,,0.00,WeatherDisplay:10.37,2013-09-10 11:49:00,
2013-09-10 13:54:00,73.8,68.0,30.09,SSE,150,8.1,8.1,82,0.00,FEW,,0.00,WeatherDisplay:10.37,2013-09-10 11:54:00,
2013-09-10 13:59:00,73.5,67.3,30.09,SSE,156,10.4,10.4,81,0.00,FEW,,0.00,WeatherDisplay:10.37,2013-09-10 11:59:00,
2013-09-10 14:04:00,72.8,67.3,30.09,SSE,153,12.0,12.0,83,0.00,FEW,,0.00,WeatherDisplay:10.37,2013-09-10 12:04:00,
2013-09-10 14:09:00,71.6,66.2,30.08,SSW,192,9.2,9.2,83,0.00,FEW,,0.00,WeatherDisplay:10.37,2013-09-10 12:09:00,
2013-09-10 14:14:00,71.1,65.3,30.08,South,184,6.9,6.9,82,0.00,FEW,,0.00,WeatherDisplay:10.37,2013-09-10 12:14:00,
2013-09-10 14:19:00,71.4,65.6,30.08,SSE,168,5.8,5.8,82,0.00,FEW,,0.00,WeatherDisplay:10.37,2013-09-10 12:19:00,
2013-09-10 14:24:00,71.4,64.9,30.08,SSE,168,8.1,8.1,80,0.00,FEW,,0.00,WeatherDisplay:10.37,2013-09-10 12:24:00,
2013-09-10 14:29:00,70.9,64.8,30.08,SSE,151,5.0,5.0,81,0.00,FEW,,0.00,WeatherDisplay:10.37,2013-09-10 12:29:00,
2013-09-10 14:34:00,71.4,66.0,30.08,ESE,108,6.9,6.9,83,0.00,FEW,,0.00,WeatherDisplay:10.37,2013-09-10 12:34:00,
2013-09-10 14:39:00,72.0,67.2,30.07,SSE,148,9.2,9.2,85,0.00,FEW,,0.00,WeatherDisplay:10.37,2013-09-10 12:39:00,
2013-09-10 14:44:00,72.7,68.6,30.07,SE,132,4.0,4.0,87,0.00,FEW,,0.00,WeatherDisplay:10.37,2013-09-10 12:44:00,
2013-09-10 14:49:00,72.7,68.3,30.07,SSE,154,9.0,9.0,86,0.00,FEW,,0.00,WeatherDisplay:10.37,2013-09-10 12:49:00,
2013-09-10 14:54:00,72.2,67.8,30.06,SE,141,5.8,5.8,86,0.00,FEW,,0.00,WeatherDisplay:10.37,2013-09-10 12:54:00,
2013-09-10 14:59:00,72.2,67.4,30.08,ESE,106,6.9,6.9,85,0.00,FEW,,0.00,WeatherDisplay:10.37,2013-09-10 12:59:00,
2013-09-10 15:04:00,72.9,68.5,30.08,East,91,6.0,6.0,86,0.00,FEW,,0.00,WeatherDisplay:10.37,2013-09-10 13:04:00,
2013-09-10 15:09:00,73.2,68.4,30.07,ESE,121,8.1,8.1,85,0.00,FEW,,0.00,WeatherDisplay:10.37,2013-09-10 13:09:00,
2013-09-10 15:14:00,72.7,68.3,30.07,SE,135,3.5,3.5,86,0.00,FEW,,0.00,WeatherDisplay:10.37,2013-09-10 13:14:00,
2013-09-10 15:19:00,72.3,67.9,30.07,South,182,5.8,5.8,86,0.00,FEW,,0.00,WeatherDisplay:10.37,2013-09-10 13:19:00,
2013-09-10 15:24:00,71.7,67.6,30.07,SE,129,6.9,6.9,87,0.00,FEW,,0.00,WeatherDisplay:10.37,2013-09-10 13:24:00,
2013-09-10 15:29:00,71.2,67.5,30.06,SSE,156,8.1,8.1,88,0.00,FEW,,0.00,WeatherDisplay:10.37,2013-09-10 13:29:00,
2013-09-10 15:34:00,71.0,67.3,30.06,SE,129,6.9,6.9,88,0.00,FEW,,0.00,WeatherDisplay:10.37,2013-09-10 13:34:00,
2013-09-10 15:39:00,70.9,67.2,30.06,ESE,112,11.5,11.5,88,0.00,FEW,,0.00,WeatherDisplay:10.37,2013-09-10 13:39:00,
2013-09-10 15:44:00,70.7,67.3,30.07,SW,214,3.5,3.5,89,0.00,FEW,,0.00,WeatherDisplay:10.37,2013-09-10 13:44:00,
2013-09-10 15:49:00,70.5,67.1,30.06,SSE,152,8.1,8.1,89,0.02,RA,,0.03,WeatherDisplay:10.37,2013-09-10 13:49:00,
2013-09-10 15:54:00,70.3,66.9,30.06,NW,320,8.1,8.1,89,0.06,RA,,0.07,WeatherDisplay:10.37,2013-09-10 13:54:00,
2013-09-10 15:59:00,70.1,67.0,30.07,SSW,210,11.5,11.5,90,0.13,RA,,0.14,WeatherDisplay:10.37,2013-09-10 13:59:00,
2013-09-10 16:04:00,69.8,66.7,30.07,North,354,3.5,3.5,90,0.24,RA,,0.25,WeatherDisplay:10.37,2013-09-10 14:04:00,
2013-09-10 16:09:00,69.5,66.4,30.07,East,86,3.5,3.5,90,0.31,RA,,0.31,WeatherDisplay:10.37,2013-09-10 14:09:00,
2013-09-10 16:14:00,68.6,65.2,30.06,SSE,168,18.4,18.4,89,0.35,RA,,0.35,WeatherDisplay:10.37,2013-09-10 14:14:00,
2013-09-10 16:19:00,68.2,65.2,30.06,SSE,152,4.6,4.6,90,0.36,RA,,0.36,WeatherDisplay:10.37,2013-09-10 14:19:00,
2013-09-10 16:24:00,68.7,66.0,30.06,East,97,8.1,8.1,91,0.36,RA,,0.36,WeatherDisplay:10.37,2013-09-10 14:24:00,
2013-09-10 16:29:00,69.2,66.8,30.06,SSE,160,9.2,9.2,92,0.37,RA,,0.37,WeatherDisplay:10.37,2013-09-10 14:29:00,
2013-09-10 16:34:00,69.5,67.1,30.06,ESE,108,2.3,2.3,92,0.39,RA,,0.39,WeatherDisplay:10.37,2013-09-10 14:34:00,
2013-09-10 16:39:00,69.6,66.9,30.06,SSE,147,4.6,4.6,91,0.41,RA,,0.41,WeatherDisplay:10.37,2013-09-10 14:39:00,
2013-09-10 16:44:00,69.6,67.2,30.06,SSE,149,3.5,3.5,92,0.43,RA,,0.43,WeatherDisplay:10.37,2013-09-10 14:44:00,
2013-09-10 16:49:00,69.5,67.1,30.06,SSE,158,4.6,4.6,92,0.42,RA,,0.44,WeatherDisplay:10.37,2013-09-10 14:49:00,
2013-09-10 16:54:00,69.9,67.5,30.06,SE,136,3.5,3.5,92,0.39,RA,,0.45,WeatherDisplay:10.37,2013-09-10 14:54:00,
2013-09-10 16:59:00,70.4,68.3,30.05,SSW,197,6.9,6.9,93,0.32,RA,,0.45,WeatherDisplay:10.37,2013-09-10 14:59:00,
2013-09-10 17:05:00,69.9,67.2,30.05,SSE,147,9.2,9.2,91,0.20,FEW,,0.45,WeatherDisplay:10.37,2013-09-10 15:05:00,
2013-09-10 17:10:00,70.1,67.7,30.05,SSE,168,9.2,9.2,92,0.13,FEW,,0.45,WeatherDisplay:10.37,2013-09-10 15:10:00,
2013-09-10 17:15:00,70.5,68.1,30.05,SE,146,5.8,5.8,92,0.09,FEW,,0.45,WeatherDisplay:10.37,2013-09-10 15:15:00,
2013-09-10 17:20:00,70.8,68.4,30.05,SSE,166,3.5,3.5,92,0.09,FEW,,0.45,WeatherDisplay:10.37,2013-09-10 15:20:00,
2013-09-10 17:25:00,71.1,68.7,30.05,SSE,149,5.0,5.0,92,0.09,FEW,,0.45,WeatherDisplay:10.37,2013-09-10 15:25:00,
2013-09-10 17:30:00,71.0,68.2,30.05,SW,223,4.6,4.6,91,0.08,FEW,,0.45,WeatherDisplay:10.37,2013-09-10 15:30:00,
2013-09-10 17:35:00,71.2,68.4,30.05,South,189,11.5,11.5,91,0.06,FEW,,0.45,WeatherDisplay:10.37,2013-09-10 15:35:00,
2013-09-10 17:40:00,72.1,69.3,30.04,SW,215,12.7,12.7,91,0.04,FEW,,0.45,WeatherDisplay:10.37,2013-09-10 15:40:00,
2013-09-10 17:45:00,72.2,68.1,30.04,SSW,201,17.3,17.3,87,0.02,FEW,,0.45,WeatherDisplay:10.37,2013-09-10 15:45:00,
2013-09-10 17:50:00,72.9,68.1,30.04,SW,221,18.4,18.4,85,0.01,FEW,,0.45,WeatherDisplay:10.37,2013-09-10 15:50:00,
2013-09-10 17:55:00,73.3,68.2,30.04,SSW,210,17.3,17.3,84,0.00,FEW,,0.45,WeatherDisplay:10.37,2013-09-10 15:55:00,
2013-09-10 18:00:00,73.1,68.0,30.04,SW,232,13.8,13.8,84,0.00,FEW,,0.45,WeatherDisplay:10.37,2013-09-10 16:00:00,
2013-09-10 18:05:00,73.1,68.0,30.04,SW,219,13.8,13.8,84,0.00,FEW,,0.45,WeatherDisplay:10.37,2013-09-10 16:05:00,
2013-09-10 18:10:00,72.8,67.0,30.04,SSW,210,16.1,16.1,82,0.00,FEW,,0.45,WeatherDisplay:10.37,2013-09-10 16:10:00,
2013-09-10 18:15:00,73.1,67.3,30.04,SW,230,15.0,15.0,82,0.00,FEW,,0.45,WeatherDisplay:10.37,2013-09-10 16:15:00,
2013-09-10 18:20:00,73.2,67.4,30.04,SSW,208,17.3,17.3,82,0.00,FEW,,0.45,WeatherDisplay:10.37,2013-09-10 16:20:00,
2013-09-10 18:25:00,73.1,66.9,30.04,WSW,237,13.8,13.8,81,0.00,FEW,,0.45,WeatherDisplay:10.37,2013-09-10 16:25:00,
2013-09-10 18:30:00,73.2,66.3,30.04,SW,226,16.1,16.1,79,0.00,FEW,,0.45,WeatherDisplay:10.37,2013-09-10 16:30:00,
2013-09-10 18:35:00,73.2,66.7,30.04,SW,226,16.0,16.0,80,0.00,FEW,,0.45,WeatherDisplay:10.37,2013-09-10 16:35:00,
2013-09-10 18:41:00,73.1,66.9,30.04,SW,235,16.1,16.1,81,0.00,FEW,,0.45,WeatherDisplay:10.37,2013-09-10 16:41:00,
2013-09-10 18:46:00,73.2,67.4,30.04,SSW,213,12.7,12.7,82,0.00,FEW,,0.45,WeatherDisplay:10.37,2013-09-10 16:46:00,
2013-09-10 18:51:00,73.2,67.4,30.04,SW,216,13.0,13.0,82,0.00,FEW,,0.45,WeatherDisplay:10.37,2013-09-10 16:51:00,
2013-09-10 18:56:00,73.1,66.9,30.04,SW,231,11.5,11.5,81,0.00,FEW,,0.45,WeatherDisplay:10.37,2013-09-10 16:56:00,
2013-09-10 19:01:00,73.1,66.9,30.04,SSW,213,11.5,11.5,81,0.00,FEW,,0.45,WeatherDisplay:10.37,2013-09-10 17:01:00,
2013-09-10 19:06:00,73.2,67.0,30.04,SSW,207,9.2,9.2,81,0.00,FEW,,0.45,WeatherDisplay:10.37,2013-09-10 17:06:00,
2013-09-10 19:11:00,73.4,67.2,30.04,SW,219,10.4,10.4,81,0.00,FEW,,0.45,WeatherDisplay:10.37,2013-09-10 17:11:00,
2013-09-10 19:16:00,73.4,67.2,30.04,SSW,212,12.7,12.7,81,0.00,FEW,,0.45,WeatherDisplay:10.37,2013-09-10 17:16:00,
2013-09-10 19:21:00,73.5,67.7,30.04,South,181,11.5,11.5,82,0.00,FEW,,0.45,WeatherDisplay:10.37,2013-09-10 17:21:00,
2013-09-10 19:26:00,73.4,67.9,30.04,SSW,210,11.5,11.5,83,0.00,FEW,,0.45,WeatherDisplay:10.37,2013-09-10 17:26:00,
2013-09-10 19:31:00,73.2,68.1,30.05,South,172,6.9,6.9,84,0.00,FEW,,0.45,WeatherDisplay:10.37,2013-09-10 17:31:00,
2013-09-10 19:36:00,73.0,67.9,30.05,SSW,196,11.5,11.5,84,0.00,FEW,,0.45,WeatherDisplay:10.37,2013-09-10 17:36:00,
2013-09-10 19:41:00,72.7,67.6,30.05,SSE,168,9.2,9.2,84,0.00,FEW,,0.45,WeatherDisplay:10.37,2013-09-10 17:41:00,
2013-09-10 19:46:00,72.7,67.6,30.05,South,183,6.9,6.9,84,0.00,FEW,,0.45,WeatherDisplay:10.37,2013-09-10 17:46:00,
2013-09-10 19:51:00,72.6,67.8,30.05,SW,219,9.2,9.2,85,0.00,FEW,,0.45,WeatherDisplay:10.37,2013-09-10 17:51:00,
2013-09-10 19:56:00,72.6,67.8,30.05,SW,220,9.2,9.2,85,0.00,FEW,,0.45,WeatherDisplay:10.37,2013-09-10 17:56:00,
2013-09-10 20:01:00,72.4,67.6,30.05,SSW,200,10.4,10.4,85,0.00,FEW,,0.45,WeatherDisplay:10.37,2013-09-10 18:01:00,
2013-09-10 20:06:00,72.2,67.4,30.05,SSW,197,10.4,10.4,85,0.00,FEW,,0.45,WeatherDisplay:10.37,2013-09-10 18:06:00,
2013-09-10 20:11:00,72.1,67.7,30.04,South,183,10.4,10.4,86,0.00,FEW,,0.45,WeatherDisplay:10.37,2013-09-10 18:11:00,
2013-09-10 20:16:00,71.9,67.5,30.04,SSW,204,11.5,11.5,86,0.00,FEW,,0.45,WeatherDisplay:10.37,2013-09-10 18:16:00,
2013-09-10 20:21:00,71.8,67.7,30.04,SSW,199,9.2,9.2,87,0.00,FEW,,0.45,WeatherDisplay:10.37,2013-09-10 18:21:00,
2013-09-10 20:26:00,71.7,67.6,30.04,SW,221,9.2,9.2,87,0.00,FEW,,0.45,WeatherDisplay:10.37,2013-09-10 18:26:00,
2013-09-10 20:31:00,71.6,67.5,30.04,SSW,212,8.1,8.1,87,0.00,FEW,,0.45,WeatherDisplay:10.37,2013-09-10 18:31:00,
2013-09-10 20:36:00,71.5,67.4,30.05,SSW,206,9.2,9.2,87,0.00,FEW,,0.45,WeatherDisplay:10.37,2013-09-10 18:36:00,
2013-09-10 20:41:00,71.3,67.2,30.05,SW,216,9.2,9.2,87,0.00,FEW,,0.45,WeatherDisplay:10.37,2013-09-10 18:41:00,
2013-09-10 20:46:00,71.3,67.2,30.05,SSW,204,10.4,10.4,87,0.00,FEW,,0.45,WeatherDisplay:10.37,2013-09-10 18:46:00,
2013-09-10 20:51:00,71.3,67.2,30.05,SSW,204,9.2,9.2,87,0.00,FEW,,0.45,WeatherDisplay:10.37,2013-09-10 18:51:00,
2013-09-10 20:56:00,71.3,67.6,30.05,SW,234,9.2,9.2,88,0.00,FEW,,0.45,WeatherDisplay:10.37,2013-09-10 18:56:00,
2013-09-10 21:01:00,71.3,67.6,30.05,SW,224,10.4,10.4,88,0.00,FEW,,0.45,WeatherDisplay:10.37,2013-09-10 19:01:00,
2013-09-10 21:06:00,71.3,67.6,30.05,SW,226,9.2,9.2,88,0.00,FEW,,0.45,WeatherDisplay:10.37,2013-09-10 19:06:00,
2013-09-10 21:11:00,71.3,67.6,30.05,SSW,207,8.1,8.1,88,0.00,FEW,,0.45,WeatherDisplay:10.37,2013-09-10 19:11:00,
2013-09-10 21:16:00,71.3,67.6,30.06,SSW,203,9.2,9.2,88,0.00,FEW,,0.45,WeatherDisplay:10.37,2013-09-10 19:16:00,
2013-09-10 21:21:00,71.3,67.6,30.06,SSW,198,10.4,10.4,88,0.00,FEW,,0.45,WeatherDisplay:10.37,2013-09-10 19:21:00,
2013-09-10 21:26:00,71.2,67.5,30.06,SSW,195,9.2,9.2,88,0.00,FEW,,0.45,WeatherDisplay:10.37,2013-09-10 19:26:00,
2013-09-10 21:31:00,71.2,67.5,30.06,SW,214,10.4,10.4,88,0.00,FEW,,0.45,WeatherDisplay:10.37,2013-09-10 19:31:00,
2013-09-10 21:36:00,71.2,67.5,30.06,SSW,212,9.2,9.2,88,0.00,FEW,,0.45,WeatherDisplay:10.37,2013-09-10 19:36:00,
2013-09-10 21:41:00,71.1,67.4,30.06,SW,229,8.0,8.0,88,0.00,FEW,,0.45,WeatherDisplay:10.37,2013-09-10 19:41:00,
2013-09-10 21:46:00,71.1,67.4,30.06,SW,214,10.4,10.4,88,0.00,FEW,,0.45,WeatherDisplay:10.37,2013-09-10 19:46:00,
2013-09-10 21:51:00,71.1,67.4,30.06,SSW,199,9.2,9.2,88,0.00,FEW,,0.45,WeatherDisplay:10.37,2013-09-10 19:51:00,
2013-09-10 21:56:00,71.1,67.4,30.06,SSW,210,9.2,9.2,88,0.00,FEW,,0.45,WeatherDisplay:10.37,2013-09-10 19:56:00,
2013-09-10 22:01:00,71.1,67.4,30.07,SSW,210,9.2,9.2,88,0.00,FEW,,0.45,WeatherDisplay:10.37,2013-09-10 20:01:00,
2013-09-10 22:06:00,71.0,67.3,30.06,SSW,193,8.1,8.1,88,0.00,FEW,,0.45,WeatherDisplay:10.37,2013-09-10 20:06:00,
2013-09-10 22:11:00,70.9,67.2,30.06,South,185,8.0,8.0,88,0.00,FEW,,0.45,WeatherDisplay:10.37,2013-09-10 20:11:00,
2013-09-10 22:16:00,70.9,67.5,30.07,SSW,196,8.1,8.1,89,0.00,FEW,,0.45,WeatherDisplay:10.37,2013-09-10 20:16:00,
2013-09-10 22:21:00,70.8,67.4,30.07,SSW,196,8.1,8.1,89,0.00,FEW,,0.45,WeatherDisplay:10.37,2013-09-10 20:21:00,
2013-09-10 22:26:00,70.8,67.4,30.07,SSW,198,10.4,10.4,89,0.00,FEW,,0.45,WeatherDisplay:10.37,2013-09-10 20:26:00,
2013-09-10 22:31:00,70.7,67.3,30.06,South,191,10.4,10.4,89,0.00,FEW,,0.45,WeatherDisplay:10.37,2013-09-10 20:31:00,
2013-09-10 22:36:00,70.6,67.2,30.06,South,191,8.0,8.0,89,0.00,FEW,,0.45,WeatherDisplay:10.37,2013-09-10 20:36:00,
2013-09-10 22:41:00,70.6,67.2,30.06,SSW,201,9.2,9.2,89,0.00,FEW,,0.45,WeatherDisplay:10.37,2013-09-10 20:41:00,
2013-09-10 22:46:00,70.6,67.2,30.06,SSW,205,8.1,8.1,89,0.00,FEW,,0.45,WeatherDisplay:10.37,2013-09-10 20:46:00,
2013-09-10 22:51:00,70.6,67.2,30.06,SSW,198,6.9,6.9,89,0.00,FEW,,0.45,WeatherDisplay:10.37,2013-09-10 20:51:00,
2013-09-10 22:56:00,70.5,67.1,30.06,SSW,201,9.2,9.2,89,0.00,FEW,,0.45,WeatherDisplay:10.37,2013-09-10 20:56:00,
2013-09-10 23:01:00,70.5,67.1,30.06,SSW,206,9.2,9.2,89,0.00,FEW,,0.45,WeatherDisplay:10.37,2013-09-10 21:01:00,
2013-09-10 23:06:00,70.5,67.1,30.06,SSW,204,9.2,9.2,89,0.00,FEW,,0.45,WeatherDisplay:10.37,2013-09-10 21:06:00,
2013-09-10 23:11:00,70.5,67.1,30.06,SSW,206,8.1,8.1,89,0.00,FEW,,0.45,WeatherDisplay:10.37,2013-09-10 21:11:00,
2013-09-10 23:16:00,70.4,67.0,30.06,SW,216,8.1,8.1,89,0.00,FEW,,0.45,WeatherDisplay:10.37,2013-09-10 21:16:00,
2013-09-10 23:21:00,70.3,66.9,30.06,SSW,211,9.2,9.2,89,0.00,FEW,,0.45,WeatherDisplay:10.37,2013-09-10 21:21:00,
2013-09-10 23:26:00,70.2,66.8,30.06,SSW,197,10.4,10.4,89,0.00,FEW,,0.45,WeatherDisplay:10.37,2013-09-10 21:26:00,
2013-09-10 23:31:00,70.2,66.8,30.06,SSW,212,8.1,8.1,89,0.00,FEW,,0.45,WeatherDisplay:10.37,2013-09-10 21:31:00,
2013-09-10 23:36:00,70.1,66.4,30.06,SSW,193,10.4,10.4,88,0.00,FEW,,0.45,WeatherDisplay:10.37,2013-09-10 21:36:00,
2013-09-10 23:41:00,70.2,66.5,30.06,SSW,211,11.5,11.5,88,0.00,FEW,,0.45,WeatherDisplay:10.37,2013-09-10 21:41:00,
2013-09-10 23:46:00,70.2,66.5,30.06,SSW,210,10.4,10.4,88,0.00,FEW,,0.45,WeatherDisplay:10.37,2013-09-10 21:46:00,
2013-09-10 23:52:00,70.2,66.5,30.06,SSW,210,10.4,10.4,88,0.00,FEW,,0.45,WeatherDisplay:10.37,2013-09-10 21:52:00,
2013-09-10 23:57:00,70.2,66.5,30.06,SW,218,11.5,11.5,88,0.00,FEW,,0.45,WeatherDisplay:10.37,2013-09-10 21:57:00,